Time;durP1;ratioP1;P1;durP2;ratioP2;P2;SDS_P1;SDS_P2;PMS_P1;PMS_P2;Temp;Humidity;BMP_temperature;BMP_pressure;BME280_temperature;BME280_humidity;BME280_pressure;Samples;Min_cycle;Max_cycle;Signal;HPM_P1;HPM_P2
2023/06/03 00:00:15;;;;;;;0.70;0.70;;;;;;;;;;5014108;28;20208;-88
2023/06/03 00:02:42;;;;;;;0.90;0.90;;;;;;;;;;5004415;28;20749;-87
2023/06/03 00:05:09;;;;;;;1.15;1.15;;;;;;;;;;4980468;28;20234;-86
2023/06/03 00:07:36;;;;;;;2.13;1.30;;;;;;;;;;4978009;28;20200;-87
2023/06/03 00:10:04;;;;;;;1.85;1.75;;;;;;;;;;4989146;28;20284;-87
2023/06/03 00:12:33;;;;;;;4.22;1.50;;;;;;;;;;4992789;28;20240;-85
2023/06/03 00:15:00;;;;;;;0.93;0.90;;;;;;;;;;4998784;28;20234;-87
2023/06/03 00:17:27;;;;;;;1.20;1.05;;;;;;;;;;4993453;28;20214;-87
2023/06/03 00:19:55;;;;;;;1.23;1.13;;;;;;;;;;4998507;28;20281;-88
2023/06/03 00:22:22;;;;;;;1.33;1.33;;;;;;;;;;4997748;28;20308;-88
2023/06/03 00:24:49;;;;;;;1.42;1.33;;;;;;;;;;4992386;28;20197;-88
2023/06/03 00:27:18;;;;;;;1.33;1.20;;;;;;;;;;4992929;28;20287;-87
2023/06/03 00:29:45;;;;;;;0.82;0.82;;;;;;;;;;4992833;28;20252;-88
2023/06/03 00:32:11;;;;;;;0.95;0.88;;;;;;;;;;4991389;28;20288;-87
2023/06/03 00:34:38;;;;;;;1.00;1.00;;;;;;;;;;4992014;28;20753;-89
2023/06/03 00:37:06;;;;;;;1.00;1.00;;;;;;;;;;4991884;28;20209;-88
2023/06/03 00:39:34;;;;;;;1.42;1.33;;;;;;;;;;4991590;28;20201;-88
2023/06/03 00:42:01;;;;;;;1.20;1.20;;;;;;;;;;4993009;28;20218;-88
2023/06/03 00:44:30;;;;;;;0.88;0.88;;;;;;;;;;4993208;28;20689;-86
2023/06/03 00:46:57;;;;;;;1.35;1.30;;;;;;;;;;4993681;28;20198;-88
2023/06/03 00:49:24;;;;;;;1.52;1.25;;;;;;;;;;4992381;28;20199;-86
2023/06/03 00:52:00;;;;;;;2.45;0.98;;;;;;;;;;4991814;28;20291;-86
2023/06/03 00:54:27;;;;;;;3.63;1.33;;;;;;;;;;4993998;28;20306;-88
2023/06/03 00:56:55;;;;;;;1.10;1.10;;;;;;;;;;4998966;28;20237;-87
2023/06/03 00:59:21;;;;;;;2.38;1.42;;;;;;;;;;5005436;28;20253;-88
2023/06/03 01:01:50;;;;;;;1.48;1.38;;;;;;;;;;4999697;28;20209;-86
2023/06/03 01:04:25;;;;;;;3.22;1.52;;;;;;;;;;4996123;28;20199;-88
2023/06/03 01:06:55;;;;;;;3.90;1.75;;;;;;;;;;4977287;28;20202;-88
2023/06/03 01:09:28;;;;;;;1.73;1.63;;;;;;;;;;4973307;28;20206;-87
2023/06/03 01:11:58;;;;;;;1.25;1.13;;;;;;;;;;4973535;28;20747;-87
2023/06/03 01:14:29;;;;;;;1.40;1.40;;;;;;;;;;4972953;28;20231;-88
2023/06/03 01:16:59;;;;;;;1.05;1.05;;;;;;;;;;4974778;28;20288;-89
2023/06/03 01:19:37;;;;;;;3.42;1.38;;;;;;;;;;4971739;28;20692;-88
2023/06/03 01:22:06;;;;;;;2.15;1.88;;;;;;;;;;4972535;28;20490;-88
2023/06/03 01:24:34;;;;;;;3.25;1.27;;;;;;;;;;4972170;28;20379;-87
2023/06/03 01:27:01;;;;;;;1.25;1.15;;;;;;;;;;4972048;28;20212;-88
2023/06/03 01:29:28;;;;;;;0.88;0.88;;;;;;;;;;4971507;28;20219;-87
2023/06/03 01:31:57;;;;;;;2.50;1.55;;;;;;;;;;4971949;28;20203;-88
2023/06/03 01:34:24;;;;;;;1.10;1.10;;;;;;;;;;4971191;28;20235;-88
2023/06/03 01:36:51;;;;;;;1.38;1.35;;;;;;;;;;4971808;28;20201;-87
2023/06/03 01:39:19;;;;;;;1.50;1.40;;;;;;;;;;4971048;28;20740;-87
2023/06/03 01:41:47;;;;;;;1.60;1.45;;;;;;;;;;4972058;28;20200;-88
2023/06/03 01:44:14;;;;;;;1.48;1.48;;;;;;;;;;4971209;28;20200;-86
2023/06/03 01:46:41;;;;;;;1.48;1.27;;;;;;;;;;4971337;28;20280;-87
2023/06/03 01:49:08;;;;;;;1.63;1.52;;;;;;;;;;4971635;28;20222;-88
2023/06/03 01:51:35;;;;;;;1.42;1.33;;;;;;;;;;4972074;28;20235;-89
2023/06/03 01:54:02;;;;;;;2.33;1.43;;;;;;;;;;4971708;28;20235;-89
2023/06/03 01:56:29;;;;;;;1.80;1.50;;;;;;;;;;4971706;28;20205;-89
2023/06/03 01:58:57;;;;;;;1.85;1.75;;;;;;;;;;4971409;28;20588;-90
2023/06/03 02:01:25;;;;;;;2.90;1.50;;;;;;;;;;4971393;28;20196;-89
2023/06/03 02:03:52;;;;;;;2.27;1.60;;;;;;;;;;4971489;28;20282;-87
2023/06/03 02:06:21;;;;;;;1.40;1.30;;;;;;;;;;4966370;28;20980;-87
2023/06/03 02:08:48;;;;;;;2.30;2.10;;;;;;;;;;4971478;28;20196;-90
2023/06/03 02:11:15;;;;;;;1.73;1.63;;;;;;;;;;4972454;28;20231;-87
2023/06/03 02:13:42;;;;;;;1.70;1.60;;;;;;;;;;4971298;28;20205;-88
2023/06/03 02:16:11;;;;;;;1.50;1.40;;;;;;;;;;4971220;28;20832;-88
2023/06/03 02:18:39;;;;;;;1.50;1.40;;;;;;;;;;4971021;28;20282;-88
2023/06/03 02:21:06;;;;;;;3.27;2.00;;;;;;;;;;4972107;28;20202;-87
2023/06/03 02:23:33;;;;;;;1.87;1.77;;;;;;;;;;4971888;28;20290;-89
2023/06/03 02:26:01;;;;;;;2.43;1.80;;;;;;;;;;4971958;28;20207;-89
2023/06/03 02:28:29;;;;;;;2.07;1.87;;;;;;;;;;4971513;28;20581;-89
2023/06/03 02:30:56;;;;;;;4.27;1.50;;;;;;;;;;4971655;28;20268;-90
2023/06/03 02:33:25;;;;;;;1.93;1.60;;;;;;;;;;4971640;28;20614;-89
2023/06/03 02:35:52;;;;;;;1.27;1.27;;;;;;;;;;4971580;28;20231;-89
2023/06/03 02:38:19;;;;;;;1.40;1.40;;;;;;;;;;4971023;28;20260;-90
2023/06/03 02:40:45;;;;;;;1.50;1.40;;;;;;;;;;4972206;28;20207;-89
2023/06/03 02:43:13;;;;;;;2.20;1.67;;;;;;;;;;4971636;28;20202;-90
2023/06/03 02:45:42;;;;;;;1.63;1.53;;;;;;;;;;4972567;28;20214;-89
2023/06/03 02:48:10;;;;;;;2.10;2.00;;;;;;;;;;4971464;28;20224;-89
2023/06/03 02:50:38;;;;;;;2.10;1.37;;;;;;;;;;4971483;28;20214;-88
2023/06/03 02:53:07;;;;;;;2.37;1.73;;;;;;;;;;4971295;28;20225;-89
2023/06/03 02:55:34;;;;;;;1.50;1.40;;;;;;;;;;4973229;28;20231;-89
2023/06/03 02:58:01;;;;;;;2.83;1.67;;;;;;;;;;4957502;28;20215;-89
2023/06/03 03:00:29;;;;;;;2.97;1.63;;;;;;;;;;4956648;29;20214;-89
2023/06/03 03:02:55;;;;;;;1.92;1.83;;;;;;;;;;4963844;29;20231;-90
2023/06/03 03:05:23;;;;;;;1.17;1.13;;;;;;;;;;4982873;28;20540;-88
2023/06/03 03:07:52;;;;;;;1.85;1.75;;;;;;;;;;4979485;28;20274;-88
2023/06/03 03:10:18;;;;;;;1.23;1.23;;;;;;;;;;4980194;28;20233;-89
2023/06/03 03:12:46;;;;;;;1.88;1.77;;;;;;;;;;4979820;28;20230;-89
2023/06/03 03:15:13;;;;;;;1.95;1.52;;;;;;;;;;5003383;28;20253;-87
2023/06/03 03:17:40;;;;;;;2.22;1.85;;;;;;;;;;5015847;28;20218;-88
2023/06/03 03:20:08;;;;;;;6.07;2.22;;;;;;;;;;4999006;28;20285;-88
2023/06/03 03:22:35;;;;;;;1.70;1.60;;;;;;;;;;4997328;28;20199;-89
2023/06/03 03:25:05;;;;;;;1.70;1.63;;;;;;;;;;4998340;28;20210;-89
2023/06/03 03:27:32;;;;;;;1.42;1.33;;;;;;;;;;5000608;28;20291;-88
2023/06/03 03:30:01;;;;;;;3.05;1.58;;;;;;;;;;4999211;28;20201;-88
2023/06/03 03:32:28;;;;;;;1.55;1.45;;;;;;;;;;4999068;28;20200;-88
2023/06/03 03:35:05;;;;;;;2.13;2.03;;;;;;;;;;4997330;28;20301;-89
2023/06/03 03:37:32;;;;;;;1.73;1.27;;;;;;;;;;4998878;28;20230;-89
2023/06/03 03:39:59;;;;;;;1.88;1.77;;;;;;;;;;4997741;28;20200;-90
2023/06/03 03:42:27;;;;;;;1.90;1.80;;;;;;;;;;5000312;28;20230;-88
2023/06/03 03:44:55;;;;;;;1.77;1.08;;;;;;;;;;4999795;28;20208;-88
2023/06/03 03:47:22;;;;;;;2.72;1.55;;;;;;;;;;5000645;28;20202;-89
2023/06/03 03:49:51;;;;;;;1.40;1.30;;;;;;;;;;5000695;28;20207;-89
2023/06/03 03:52:22;;;;;;;1.25;1.17;;;;;;;;;;4998944;28;20208;-89
2023/06/03 03:54:52;;;;;;;1.92;1.13;;;;;;;;;;4998804;28;20290;-89
2023/06/03 03:57:19;;;;;;;0.87;0.80;;;;;;;;;;4998326;28;20211;-90
2023/06/03 03:59:48;;;;;;;1.45;1.30;;;;;;;;;;4998079;28;20235;-90
2023/06/03 04:02:18;;;;;;;2.23;1.97;;;;;;;;;;4994711;28;20209;-87
2023/06/03 04:04:47;;;;;;;1.30;1.20;;;;;;;;;;4994010;28;20232;-88
2023/06/03 04:07:17;;;;;;;1.27;1.08;;;;;;;;;;4992490;28;20739;-88
2023/06/03 04:09:46;;;;;;;1.77;1.67;;;;;;;;;;4993580;28;20294;-88
2023/06/03 04:12:19;;;;;;;1.55;1.45;;;;;;;;;;4994259;28;20214;-87
2023/06/03 04:14:49;;;;;;;1.50;1.50;;;;;;;;;;4992300;28;20235;-87
2023/06/03 04:17:20;;;;;;;1.75;1.65;;;;;;;;;;4992614;28;20191;-87
2023/06/03 04:19:48;;;;;;;2.00;1.70;;;;;;;;;;4995433;28;20203;-89
2023/06/03 04:22:21;;;;;;;1.45;1.35;;;;;;;;;;4997822;28;20675;-89
2023/06/03 04:24:51;;;;;;;1.83;1.30;;;;;;;;;;4996000;28;20475;-87
2023/06/03 04:27:18;;;;;;;1.08;1.08;;;;;;;;;;4992670;28;20299;-88
2023/06/03 04:29:45;;;;;;;1.98;1.85;;;;;;;;;;4991507;28;20201;-88
2023/06/03 04:32:13;;;;;;;1.30;1.30;;;;;;;;;;4992539;28;20219;-87
2023/06/03 04:34:49;;;;;;;1.23;1.23;;;;;;;;;;4992426;28;20239;-87
2023/06/03 04:37:19;;;;;;;1.70;1.55;;;;;;;;;;4991918;28;20213;-88
2023/06/03 04:39:46;;;;;;;5.15;2.20;;;;;;;;;;4992655;28;20214;-88
2023/06/03 04:42:13;;;;;;;1.33;1.30;;;;;;;;;;4994887;28;20760;-88
2023/06/03 04:44:43;;;;;;;1.83;1.67;;;;;;;;;;4991522;28;20693;-86
2023/06/03 04:47:10;;;;;;;1.75;1.65;;;;;;;;;;4991215;28;20253;-87
2023/06/03 04:49:42;;;;;;;1.92;1.90;;;;;;;;;;4992072;28;20209;-87
2023/06/03 04:52:10;;;;;;;2.13;1.92;;;;;;;;;;4990900;28;20263;-87
2023/06/03 04:54:38;;;;;;;1.83;1.70;;;;;;;;;;4991341;28;20230;-88
2023/06/03 04:57:04;;;;;;;2.65;2.15;;;;;;;;;;4991790;28;20260;-88
2023/06/03 04:59:33;;;;;;;1.58;1.48;;;;;;;;;;4991801;28;20205;-89
2023/06/03 05:02:01;;;;;;;2.13;2.03;;;;;;;;;;4991568;28;20208;-90
2023/06/03 05:04:29;;;;;;;2.47;1.92;;;;;;;;;;4992145;28;20200;-87
2023/06/03 05:07:00;;;;;;;1.65;1.55;;;;;;;;;;4992581;28;20197;-88
2023/06/03 05:09:27;;;;;;;1.80;1.70;;;;;;;;;;4992268;28;20220;-87
2023/06/03 05:11:56;;;;;;;5.28;4.25;;;;;;;;;;4991162;28;20234;-88
2023/06/03 05:14:25;;;;;;;2.00;1.90;;;;;;;;;;4992910;28;20233;-90
2023/06/03 05:16:52;;;;;;;1.80;1.70;;;;;;;;;;4995739;28;20601;-89
2023/06/03 05:19:23;;;;;;;2.20;2.08;;;;;;;;;;4993429;28;20197;-90
2023/06/03 05:21:50;;;;;;;1.90;1.80;;;;;;;;;;4993686;28;20209;-89
2023/06/03 05:24:18;;;;;;;1.95;1.85;;;;;;;;;;4990412;28;20618;-89
2023/06/03 05:26:46;;;;;;;2.05;1.95;;;;;;;;;;4992316;28;20203;-88
2023/06/03 05:29:13;;;;;;;2.08;1.80;;;;;;;;;;5001999;28;20665;-88
2023/06/03 05:31:40;;;;;;;1.95;1.85;;;;;;;;;;4991327;28;20220;-88
2023/06/03 05:34:07;;;;;;;1.90;1.80;;;;;;;;;;4993948;28;20205;-87
2023/06/03 05:36:35;;;;;;;1.65;1.55;;;;;;;;;;4992052;28;20317;-89
2023/06/03 05:39:03;;;;;;;1.70;1.67;;;;;;;;;;4995922;28;20354;-88
2023/06/03 05:41:33;;;;;;;3.08;2.10;;;;;;;;;;4999554;28;20199;-87
2023/06/03 05:44:01;;;;;;;2.00;1.90;;;;;;;;;;4999003;28;20221;-87
2023/06/03 05:46:28;;;;;;;3.20;2.05;;;;;;;;;;4992816;28;20216;-87
2023/06/03 05:48:57;;;;;;;2.00;1.90;;;;;;;;;;4992638;28;20202;-89
2023/06/03 05:51:23;;;;;;;6.10;1.90;;;;;;;;;;4992390;28;20205;-88
2023/06/03 05:53:51;;;;;;;9.30;2.45;;;;;;;;;;4992373;28;20651;-88
2023/06/03 05:56:18;;;;;;;1.65;1.55;;;;;;;;;;4992582;28;20236;-87
2023/06/03 05:58:47;;;;;;;1.90;1.80;;;;;;;;;;4992030;28;20634;-88
2023/06/03 06:01:17;;;;;;;2.08;1.75;;;;;;;;;;4991599;28;20256;-88
2023/06/03 06:03:47;;;;;;;1.70;1.60;;;;;;;;;;4991853;28;20749;-87
2023/06/03 06:06:23;;;;;;;1.85;1.75;;;;;;;;;;4992216;28;20356;-88
2023/06/03 06:08:56;;;;;;;1.83;1.70;;;;;;;;;;4991438;28;20284;-89
2023/06/03 06:11:32;;;;;;;1.73;1.63;;;;;;;;;;5000514;28;20323;-88
2023/06/03 06:14:01;;;;;;;1.75;1.60;;;;;;;;;;5009759;28;20669;-87
2023/06/03 06:16:28;;;;;;;2.03;1.92;;;;;;;;;;5009419;28;20291;-89
2023/06/03 06:18:58;;;;;;;2.53;2.00;;;;;;;;;;5010192;28;20208;-88
2023/06/03 06:21:25;;;;;;;1.75;1.65;;;;;;;;;;5010909;28;20209;-87
2023/06/03 06:23:53;;;;;;;2.13;1.50;;;;;;;;;;4991604;28;20240;-89
2023/06/03 06:26:21;;;;;;;1.23;1.23;;;;;;;;;;4989229;28;20761;-88
2023/06/03 06:28:48;;;;;;;1.58;1.48;;;;;;;;;;4991003;28;20201;-87
2023/06/03 06:31:19;;;;;;;1.40;1.40;;;;;;;;;;4996905;28;20277;-86
2023/06/03 06:33:47;;;;;;;2.85;1.50;;;;;;;;;;4995090;28;20700;-88
2023/06/03 06:36:27;;;;;;;1.67;1.52;;;;;;;;;;4994272;28;20251;-90
2023/06/03 06:38:54;;;;;;;2.88;1.60;;;;;;;;;;4995022;28;20368;-89
2023/06/03 06:41:22;;;;;;;1.55;1.55;;;;;;;;;;4996407;28;20674;-90
2023/06/03 06:43:50;;;;;;;1.58;1.48;;;;;;;;;;4996805;28;20201;-88
2023/06/03 06:46:17;;;;;;;1.63;1.63;;;;;;;;;;4995133;28;20316;-88
2023/06/03 06:48:46;;;;;;;3.55;2.17;;;;;;;;;;4994366;28;20243;-89
2023/06/03 06:51:19;;;;;;;2.13;2.03;;;;;;;;;;4996601;28;20236;-89
2023/06/03 06:53:48;;;;;;;2.72;2.00;;;;;;;;;;4996666;28;20213;-90
2023/06/03 06:56:15;;;;;;;2.30;2.10;;;;;;;;;;4994353;28;20217;-90
2023/06/03 06:58:43;;;;;;;2.50;1.77;;;;;;;;;;4994565;28;20212;-90
2023/06/03 07:01:10;;;;;;;2.22;1.60;;;;;;;;;;4994361;28;20779;-89
2023/06/03 07:03:38;;;;;;;2.10;2.00;;;;;;;;;;4993735;28;20213;-89
2023/06/03 07:06:07;;;;;;;2.20;1.73;;;;;;;;;;4994030;28;20229;-89
2023/06/03 07:08:55;;;;;;;2.10;1.92;;;;;;;;;;4992936;28;20202;-90
2023/06/03 07:11:22;;;;;;;2.45;2.25;;;;;;;;;;4993633;28;20664;-89
2023/06/03 07:13:51;;;;;;;2.22;2.13;;;;;;;;;;4995055;28;20229;-89
2023/06/03 07:16:18;;;;;;;2.00;1.90;;;;;;;;;;4994195;28;20225;-90
2023/06/03 07:18:47;;;;;;;1.85;1.80;;;;;;;;;;4994460;28;20321;-89
2023/06/03 07:21:18;;;;;;;1.58;1.50;;;;;;;;;;4996482;28;20702;-89
2023/06/03 07:23:47;;;;;;;2.08;1.92;;;;;;;;;;5001137;28;20291;-87
2023/06/03 07:26:15;;;;;;;2.22;2.03;;;;;;;;;;5007966;28;20700;-90
2023/06/03 07:28:42;;;;;;;1.73;1.63;;;;;;;;;;5012648;28;20712;-89
2023/06/03 07:31:10;;;;;;;1.88;1.77;;;;;;;;;;5013072;28;20279;-89
2023/06/03 07:33:39;;;;;;;1.73;1.63;;;;;;;;;;4998946;28;20367;-88
2023/06/03 07:36:06;;;;;;;2.10;2.00;;;;;;;;;;4993422;28;20221;-89
2023/06/03 07:38:53;;;;;;;1.65;1.65;;;;;;;;;;4992603;28;20682;-90
2023/06/03 07:41:30;;;;;;;2.90;1.55;;;;;;;;;;4992805;28;20202;-88
2023/06/03 07:43:58;;;;;;;1.63;1.52;;;;;;;;;;4992144;28;20201;-89
2023/06/03 07:46:30;;;;;;;1.45;1.45;;;;;;;;;;4992424;28;20210;-88
2023/06/03 07:49:01;;;;;;;4.53;1.55;;;;;;;;;;4995020;28;20225;-89
2023/06/03 07:51:28;;;;;;;1.48;1.48;;;;;;;;;;5021347;28;20201;-88
2023/06/03 07:53:58;;;;;;;1.63;1.52;;;;;;;;;;5033183;28;20204;-88
2023/06/03 07:56:27;;;;;;;1.40;1.30;;;;;;;;;;5014573;28;20600;-88
2023/06/03 07:58:54;;;;;;;1.52;1.40;;;;;;;;;;5012811;28;20678;-88
2023/06/03 08:01:25;;;;;;;1.63;1.52;;;;;;;;;;5012523;28;20208;-90
2023/06/03 08:03:53;;;;;;;1.25;1.25;;;;;;;;;;5016096;28;20695;-88
2023/06/03 08:06:26;;;;;;;1.10;1.10;;;;;;;;;;5027656;28;20238;-88
2023/06/03 08:08:58;;;;;;;1.30;1.27;;;;;;;;;;5019302;28;20579;-88
2023/06/03 08:11:28;;;;;;;1.35;1.25;;;;;;;;;;5006480;28;20297;-89
2023/06/03 08:13:58;;;;;;;2.25;1.10;;;;;;;;;;5012985;28;20247;-89
2023/06/03 08:16:25;;;;;;;1.00;1.00;;;;;;;;;;5011932;28;20226;-89
2023/06/03 08:18:54;;;;;;;1.30;1.30;;;;;;;;;;5004510;28;20219;-89
2023/06/03 08:21:24;;;;;;;1.50;1.40;;;;;;;;;;5013882;28;20212;-89
2023/06/03 08:23:51;;;;;;;1.00;1.00;;;;;;;;;;5006052;28;20665;-90
2023/06/03 08:26:20;;;;;;;0.95;0.95;;;;;;;;;;4992675;28;20201;-90
2023/06/03 08:28:49;;;;;;;1.10;1.10;;;;;;;;;;4992581;28;20202;-90
2023/06/03 08:31:18;;;;;;;1.05;1.05;;;;;;;;;;4992631;28;20194;-90
2023/06/03 08:33:47;;;;;;;1.50;1.17;;;;;;;;;;4993519;28;20197;-91
2023/06/03 08:36:26;;;;;;;1.20;1.10;;;;;;;;;;4992220;28;20237;-91
2023/06/03 08:38:55;;;;;;;1.15;1.00;;;;;;;;;;4997168;28;20250;-89
2023/06/03 08:41:23;;;;;;;1.00;1.00;;;;;;;;;;4994567;28;20216;-91
2023/06/03 08:43:52;;;;;;;1.30;1.20;;;;;;;;;;4991699;28;20287;-89
2023/06/03 08:46:23;;;;;;;2.17;1.00;;;;;;;;;;4992645;28;20209;-89
2023/06/03 08:48:57;;;;;;;1.20;1.20;;;;;;;;;;4991446;28;20578;-90
2023/06/03 08:51:26;;;;;;;1.08;1.08;;;;;;;;;;4991610;28;20263;-89
2023/06/03 08:53:55;;;;;;;1.77;0.93;;;;;;;;;;4992093;28;20209;-89
2023/06/03 08:56:31;;;;;;;1.25;0.93;;;;;;;;;;5001828;28;20994;-90
2023/06/03 08:59:20;;;;;;;2.33;1.00;;;;;;;;;;5011785;28;20669;-90
2023/06/03 09:01:51;;;;;;;1.10;1.10;;;;;;;;;;4998090;28;20290;-90
2023/06/03 09:04:18;;;;;;;0.95;0.95;;;;;;;;;;4994248;28;20235;-90
2023/06/03 09:06:47;;;;;;;1.17;1.17;;;;;;;;;;4997165;28;20237;-89
2023/06/03 09:09:16;;;;;;;0.90;0.90;;;;;;;;;;5004644;28;20704;-90
2023/06/03 09:11:44;;;;;;;0.80;0.80;;;;;;;;;;5000566;28;20256;-89
2023/06/03 09:14:12;;;;;;;0.60;0.60;;;;;;;;;;4998328;28;20581;-88
2023/06/03 09:16:43;;;;;;;0.90;0.90;;;;;;;;;;4999779;28;20268;-90
2023/06/03 09:19:15;;;;;;;0.90;0.90;;;;;;;;;;4996962;28;20344;-87
2023/06/03 09:21:42;;;;;;;2.20;0.82;;;;;;;;;;5000715;28;20271;-88
2023/06/03 09:24:13;;;;;;;7.80;6.10;;;;;;;;;;5000089;28;20224;-91
2023/06/03 09:26:39;;;;;;;1.65;1.55;;;;;;;;;;4989872;28;20218;-89
2023/06/03 09:29:13;;;;;;;0.98;0.98;;;;;;;;;;4991832;28;20228;-91
2023/06/03 09:31:40;;;;;;;1.00;1.00;;;;;;;;;;4989410;28;20232;-91
2023/06/03 09:34:09;;;;;;;1.17;1.10;;;;;;;;;;4992432;28;20255;-91
2023/06/03 09:36:49;;;;;;;1.25;1.15;;;;;;;;;;4991698;28;20660;-91
2023/06/03 09:39:17;;;;;;;0.85;0.85;;;;;;;;;;4992125;28;20225;-91
2023/06/03 09:41:45;;;;;;;0.93;0.93;;;;;;;;;;4993385;28;20432;-89
2023/06/03 09:44:12;;;;;;;1.00;1.00;;;;;;;;;;4989681;28;20232;-88
2023/06/03 09:46:39;;;;;;;1.00;0.90;;;;;;;;;;4988683;28;20635;-88
2023/06/03 09:49:09;;;;;;;0.98;0.98;;;;;;;;;;4990440;28;20264;-88
2023/06/03 09:51:43;;;;;;;1.00;0.88;;;;;;;;;;4989566;28;20358;-88
2023/06/03 09:54:13;;;;;;;0.82;0.82;;;;;;;;;;4989460;28;20301;-88
2023/06/03 09:56:41;;;;;;;1.05;1.05;;;;;;;;;;4970026;28;20613;-89
2023/06/03 09:59:15;;;;;;;1.20;1.20;;;;;;;;;;4970298;28;20226;-90
2023/06/03 10:01:42;;;;;;;2.45;0.77;;;;;;;;;;4969515;28;20307;-89
2023/06/03 10:04:13;;;;;;;0.98;0.98;;;;;;;;;;4968853;28;20324;-89
2023/06/03 10:06:41;;;;;;;1.55;1.27;;;;;;;;;;4967719;28;20635;-89
2023/06/03 10:09:26;;;;;;;0.90;0.90;;;;;;;;;;4967770;28;20308;-89
2023/06/03 10:11:53;;;;;;;1.25;1.25;;;;;;;;;;4968684;28;20636;-90
2023/06/03 10:14:26;;;;;;;1.27;0.95;;;;;;;;;;4967693;28;20226;-89
2023/06/03 10:17:03;;;;;;;0.98;0.88;;;;;;;;;;4969379;28;20269;-90
2023/06/03 10:19:33;;;;;;;1.05;1.05;;;;;;;;;;4971607;28;20275;-91
2023/06/03 10:22:00;;;;;;;1.20;1.20;;;;;;;;;;4970529;28;20249;-89
2023/06/03 10:24:30;;;;;;;0.73;0.73;;;;;;;;;;4971500;28;20656;-89
2023/06/03 10:26:57;;;;;;;1.10;1.05;;;;;;;;;;4989943;28;20225;-90
2023/06/03 10:29:29;;;;;;;7.10;4.97;;;;;;;;;;4989576;28;20229;-89
2023/06/03 10:31:57;;;;;;;1.13;1.13;;;;;;;;;;4988942;28;20618;-88
2023/06/03 10:34:24;;;;;;;1.30;1.20;;;;;;;;;;4989391;28;20237;-90
2023/06/03 10:37:01;;;;;;;1.33;0.95;;;;;;;;;;4990332;28;20241;-90
2023/06/03 10:39:30;;;;;;;0.95;0.88;;;;;;;;;;4988888;28;20765;-90
2023/06/03 10:41:59;;;;;;;1.00;1.00;;;;;;;;;;4989742;28;20240;-90
2023/06/03 10:44:29;;;;;;;1.20;1.20;;;;;;;;;;4986662;28;20236;-90
2023/06/03 10:46:59;;;;;;;1.92;1.05;;;;;;;;;;4992656;28;20235;-91
2023/06/03 10:49:27;;;;;;;1.10;1.10;;;;;;;;;;4994285;28;20348;-89
2023/06/03 10:52:04;;;;;;;2.22;1.00;;;;;;;;;;5004193;28;20225;-87
2023/06/03 10:54:39;;;;;;;1.05;0.88;;;;;;;;;;5004766;28;20232;-86
2023/06/03 10:57:08;;;;;;;0.80;0.80;;;;;;;;;;4996554;28;20248;-89
2023/06/03 10:59:43;;;;;;;1.00;1.00;;;;;;;;;;4990302;28;20232;-90
2023/06/03 11:02:10;;;;;;;0.73;0.73;;;;;;;;;;4990633;28;20237;-90
2023/06/03 11:04:38;;;;;;;1.10;1.10;;;;;;;;;;4991094;28;20260;-90
2023/06/03 11:07:06;;;;;;;0.88;0.88;;;;;;;;;;5004785;28;20214;-88
2023/06/03 11:09:35;;;;;;;1.00;1.00;;;;;;;;;;5006241;28;20246;-88
2023/06/03 11:12:13;;;;;;;1.52;1.38;;;;;;;;;;4994697;28;20316;-89
2023/06/03 11:14:53;;;;;;;0.80;0.80;;;;;;;;;;4988869;28;20348;-90
2023/06/03 11:17:21;;;;;;;0.93;0.93;;;;;;;;;;4990706;28;20253;-89
2023/06/03 11:19:52;;;;;;;0.90;0.90;;;;;;;;;;4992747;28;20313;-89
2023/06/03 11:22:39;;;;;;;1.05;1.05;;;;;;;;;;4993099;28;20239;-90
2023/06/03 11:25:09;;;;;;;1.40;1.40;;;;;;;;;;4988247;28;20721;-89
2023/06/03 11:27:38;;;;;;;0.90;0.90;;;;;;;;;;4993809;28;20236;-89
2023/06/03 11:30:07;;;;;;;1.15;1.15;;;;;;;;;;4994963;28;20333;-90
2023/06/03 11:32:35;;;;;;;1.40;1.30;;;;;;;;;;4993026;28;20225;-90
2023/06/03 11:35:32;;;;;;;1.05;1.05;;;;;;;;;;4993026;28;20268;-89
2023/06/03 11:37:59;;;;;;;1.17;1.17;;;;;;;;;;4914949;29;20332;-89
2023/06/03 11:40:44;;;;;;;1.20;1.20;;;;;;;;;;4974776;28;20237;-90
2023/06/03 11:43:11;;;;;;;1.10;1.10;;;;;;;;;;4994373;28;20226;-91
2023/06/03 11:45:39;;;;;;;0.85;0.82;;;;;;;;;;4994061;28;20233;-91
2023/06/03 11:48:11;;;;;;;3.25;3.05;;;;;;;;;;4995664;28;20233;-89
2023/06/03 11:53:56;;;;;;;1.10;1.10;;;;;;;;;;5003061;28;20240;-90
2023/06/03 11:56:39;;;;;;;;;;;;;;;;;;;;;
2023/06/03 11:59:11;;;;;;;1.08;1.08;;;;;;;;;;4941947;28;20243;-89
2023/06/03 12:01:55;;;;;;;1.20;1.10;;;;;;;;;;4991243;28;20312;-90
2023/06/03 12:04:50;;;;;;;;;;;;;;;;;;;;;
2023/06/03 12:07:29;;;;;;;0.88;0.88;;;;;;;;;;4972157;28;20222;-90
2023/06/03 12:09:57;;;;;;;1.48;1.10;;;;;;;;;;4972456;28;20218;-90
2023/06/03 12:12:27;;;;;;;1.10;1.10;;;;;;;;;;4972639;28;20784;-89
2023/06/03 12:14:54;;;;;;;1.15;1.15;;;;;;;;;;4972131;28;20257;-90
2023/06/03 12:17:26;;;;;;;3.63;1.50;;;;;;;;;;4972009;28;20249;-90
2023/06/03 12:19:57;;;;;;;1.27;1.27;;;;;;;;;;4972604;28;20329;-89
2023/06/03 12:22:25;;;;;;;0.98;0.98;;;;;;;;;;4971748;28;20241;-91
2023/06/03 12:24:55;;;;;;;0.85;0.85;;;;;;;;;;4972200;28;20254;-89
2023/06/03 12:27:28;;;;;;;1.00;1.00;;;;;;;;;;4971526;28;20289;-89
2023/06/03 12:30:02;;;;;;;4.43;1.50;;;;;;;;;;4971519;28;20233;-89
2023/06/03 12:32:50;;;;;;;1.65;1.65;;;;;;;;;;4973654;28;20236;-91
2023/06/03 12:35:18;;;;;;;2.35;1.50;;;;;;;;;;4973272;28;20734;-89
2023/06/03 12:37:45;;;;;;;1.17;0.98;;;;;;;;;;4973079;28;20246;-90
2023/06/03 12:40:23;;;;;;;1.20;1.20;;;;;;;;;;4973579;28;20229;-89
2023/06/03 12:42:50;;;;;;;1.27;1.25;;;;;;;;;;4973627;28;20234;-90
2023/06/03 12:45:23;;;;;;;2.38;1.17;;;;;;;;;;4973801;28;20446;-89
2023/06/03 12:47:50;;;;;;;1.92;1.83;;;;;;;;;;4977857;28;20276;-89
2023/06/03 12:50:18;;;;;;;1.38;1.38;;;;;;;;;;4983616;28;20409;-88
2023/06/03 12:52:48;;;;;;;2.22;2.00;;;;;;;;;;4986301;28;20300;-89
2023/06/03 12:55:15;;;;;;;1.95;1.85;;;;;;;;;;4981248;28;20241;-88
2023/06/03 12:57:43;;;;;;;1.63;1.52;;;;;;;;;;4978194;28;20234;-87
2023/06/03 13:00:15;;;;;;;2.80;2.60;;;;;;;;;;4975735;28;20611;-88
2023/06/03 13:02:53;;;;;;;1.48;1.48;;;;;;;;;;4972102;28;20230;-90
2023/06/03 13:05:21;;;;;;;1.98;1.95;;;;;;;;;;4978607;28;20628;-89
2023/06/03 13:07:48;;;;;;;1.65;1.63;;;;;;;;;;4990284;28;20702;-89
2023/06/03 13:10:16;;;;;;;2.20;2.08;;;;;;;;;;4990315;28;20233;-90
2023/06/03 13:12:44;;;;;;;3.00;2.03;;;;;;;;;;4990096;28;20256;-90
2023/06/03 13:15:12;;;;;;;1.88;1.77;;;;;;;;;;4991347;28;20232;-89
2023/06/03 13:17:39;;;;;;;4.93;2.13;;;;;;;;;;4991540;28;20245;-89
2023/06/03 13:20:09;;;;;;;1.52;1.42;;;;;;;;;;4991447;28;20206;-88
2023/06/03 13:22:36;;;;;;;2.33;2.03;;;;;;;;;;4991743;28;20702;-88
2023/06/03 13:25:03;;;;;;;1.70;1.60;;;;;;;;;;4991685;28;20213;-87
2023/06/03 13:27:30;;;;;;;1.88;1.77;;;;;;;;;;4992034;28;20681;-89
2023/06/03 13:30:02;;;;;;;3.83;2.13;;;;;;;;;;4991743;28;20804;-89
2023/06/03 13:32:30;;;;;;;1.83;1.73;;;;;;;;;;4992324;28;20232;-90
2023/06/03 13:34:56;;;;;;;1.73;1.63;;;;;;;;;;4991063;28;20202;-90
2023/06/03 13:37:25;;;;;;;2.20;2.10;;;;;;;;;;4990746;28;20363;-88
2023/06/03 13:39:53;;;;;;;2.78;2.58;;;;;;;;;;4991359;28;20213;-90
2023/06/03 13:42:22;;;;;;;3.50;2.47;;;;;;;;;;4991684;28;20640;-89
2023/06/03 13:44:49;;;;;;;3.15;2.85;;;;;;;;;;4991563;28;20228;-90
2023/06/03 13:47:17;;;;;;;2.70;2.53;;;;;;;;;;4991110;28;20197;-88
2023/06/03 13:49:44;;;;;;;2.63;2.45;;;;;;;;;;4991051;28;20213;-87
2023/06/03 13:52:12;;;;;;;3.38;3.10;;;;;;;;;;4990948;28;20663;-89
2023/06/03 13:54:41;;;;;;;2.08;1.98;;;;;;;;;;4991739;28;20366;-88
2023/06/03 13:57:08;;;;;;;1.92;1.83;;;;;;;;;;4991724;28;20190;-86
2023/06/03 13:59:35;;;;;;;4.25;1.98;;;;;;;;;;4990045;28;20208;-84
2023/06/03 14:02:04;;;;;;;1.70;1.67;;;;;;;;;;4990150;28;20200;-83
2023/06/03 14:04:31;;;;;;;4.93;2.83;;;;;;;;;;4990962;28;20422;-85
2023/06/03 14:06:58;;;;;;;2.55;1.90;;;;;;;;;;4992254;28;20200;-86
2023/06/03 14:09:25;;;;;;;5.68;2.30;;;;;;;;;;4989771;28;20560;-86
2023/06/03 14:11:53;;;;;;;3.92;2.10;;;;;;;;;;4990941;28;20224;-88
2023/06/03 14:14:20;;;;;;;2.45;2.25;;;;;;;;;;4991071;28;20209;-85
2023/06/03 14:16:47;;;;;;;2.17;1.98;;;;;;;;;;4990287;28;20201;-86
2023/06/03 14:19:14;;;;;;;2.33;2.13;;;;;;;;;;4989791;28;20243;-88
2023/06/03 14:21:42;;;;;;;2.78;2.55;;;;;;;;;;4990872;28;20239;-86
2023/06/03 14:24:09;;;;;;;2.38;2.22;;;;;;;;;;4990349;28;20614;-87
2023/06/03 14:26:36;;;;;;;3.95;2.70;;;;;;;;;;4990693;28;20199;-88
2023/06/03 14:29:05;;;;;;;3.05;2.40;;;;;;;;;;4989794;28;20212;-88
2023/06/03 14:31:32;;;;;;;3.08;2.28;;;;;;;;;;4991006;28;20208;-88
2023/06/03 14:33:59;;;;;;;2.17;2.08;;;;;;;;;;4990446;28;20203;-87
2023/06/03 14:36:27;;;;;;;2.38;2.17;;;;;;;;;;4989760;28;20315;-88
2023/06/03 14:38:59;;;;;;;4.70;2.22;;;;;;;;;;4991447;28;20249;-89
2023/06/03 14:41:27;;;;;;;2.45;2.35;;;;;;;;;;4993370;28;20391;-88
2023/06/03 14:43:54;;;;;;;3.92;2.08;;;;;;;;;;4994463;28;20287;-87
2023/06/03 14:46:26;;;;;;;2.45;2.35;;;;;;;;;;4992181;28;20286;-87
2023/06/03 14:48:54;;;;;;;2.33;2.22;;;;;;;;;;4992046;28;20204;-89
2023/06/03 14:51:21;;;;;;;2.90;2.70;;;;;;;;;;4993361;28;20653;-88
2023/06/03 14:53:49;;;;;;;2.78;2.58;;;;;;;;;;4999512;28;20295;-86
2023/06/03 14:56:16;;;;;;;2.38;2.15;;;;;;;;;;5000535;28;20204;-86
2023/06/03 14:58:43;;;;;;;2.38;2.28;;;;;;;;;;4988061;28;20225;-86
2023/06/03 15:01:10;;;;;;;2.25;2.15;;;;;;;;;;4975241;28;20209;-89